createdAt,value
2023-09-28T00:00:34.256Z,12.05
2023-09-28T00:03:02.315Z,12.40
2023-09-28T00:05:29.250Z,12.70
2023-09-28T00:07:56.791Z,12.90
2023-09-28T00:10:24.203Z,15.95
2023-09-28T00:12:51.728Z,13.70
2023-09-28T00:15:18.321Z,12.77
2023-09-28T00:17:48.998Z,17.30
2023-09-28T00:20:20.090Z,11.85
2023-09-28T00:22:47.994Z,17.05
2023-09-28T00:25:17.319Z,14.75
2023-09-28T00:27:45.264Z,15.20
2023-09-28T00:30:22.178Z,13.88
2023-09-28T00:32:52.163Z,12.80
2023-09-28T00:35:22.008Z,13.13
2023-09-28T00:37:49.727Z,13.57
2023-09-28T00:40:37.433Z,11.48
2023-09-28T00:43:05.589Z,13.23
2023-09-28T00:45:32.267Z,17.05
2023-09-28T00:48:06.365Z,17.55
2023-09-28T00:50:33.069Z,17.40
2023-09-28T00:53:08.982Z,12.68
2023-09-28T00:55:37.746Z,16.80
2023-09-28T00:58:12.128Z,13.82
2023-09-28T01:00:39.486Z,13.88
2023-09-28T01:03:08.140Z,15.52
2023-09-28T01:05:35.159Z,13.30
2023-09-28T01:08:13.811Z,14.05
2023-09-28T01:10:43.336Z,14.57
2023-09-28T01:13:13.901Z,15.38
2023-09-28T01:15:44.937Z,17.15
2023-09-28T01:18:12.351Z,13.30
2023-09-28T01:20:48.803Z,14.50
2023-09-28T01:23:15.642Z,17.35
2023-09-28T01:25:42.564Z,13.68
2023-09-28T01:28:09.382Z,13.82
2023-09-28T01:30:36.201Z,21.58
2023-09-28T01:33:04.282Z,14.85
2023-09-28T01:35:31.082Z,12.20
2023-09-28T01:38:33.968Z,16.50
2023-09-28T01:41:00.636Z,15.63
2023-09-28T01:43:27.368Z,15.70
2023-09-28T01:45:53.973Z,14.80
2023-09-28T01:48:21.015Z,14.48
2023-09-28T01:50:47.925Z,17.33
2023-09-28T01:53:14.667Z,16.25
2023-09-28T01:55:41.815Z,14.25
2023-09-28T01:58:11.078Z,14.75
2023-09-28T02:00:37.914Z,12.50
2023-09-28T02:03:06.581Z,14.68
2023-09-28T02:05:34.367Z,15.45
2023-09-28T02:08:01.839Z,15.15
2023-09-28T02:10:29.456Z,16.15
2023-09-28T02:12:56.815Z,16.13
2023-09-28T02:15:24.489Z,11.77
2023-09-28T02:17:51.478Z,15.10
2023-09-28T02:20:21.939Z,14.45
2023-09-28T02:22:48.794Z,13.32
2023-09-28T02:25:16.731Z,12.40
2023-09-28T02:27:43.955Z,15.38
2023-09-28T02:30:16.138Z,13.13
2023-09-28T02:32:46.256Z,16.13
2023-09-28T02:35:17.995Z,13.00
2023-09-28T02:37:46.555Z,16.40
2023-09-28T02:40:13.951Z,13.90
2023-09-28T02:42:41.520Z,14.25
2023-09-28T02:45:15.515Z,19.45
2023-09-28T02:47:46.588Z,17.77
2023-09-28T02:50:14.635Z,13.63
2023-09-28T02:52:42.717Z,17.40
2023-09-28T02:55:13.716Z,16.15
2023-09-28T02:57:40.723Z,13.95
2023-09-28T03:00:23.293Z,22.15
2023-09-28T03:02:51.481Z,15.05
2023-09-28T03:05:18.746Z,17.17
2023-09-28T03:07:46.435Z,15.15
2023-09-28T03:10:13.364Z,13.43
2023-09-28T03:12:40.376Z,14.90
2023-09-28T03:15:11.800Z,14.43
2023-09-28T03:17:38.929Z,14.40
2023-09-28T03:20:16.652Z,13.55
2023-09-28T03:22:44.956Z,21.75
2023-09-28T03:25:33.308Z,14.30
2023-09-28T03:27:59.977Z,14.70
2023-09-28T03:30:26.828Z,14.40
2023-09-28T03:32:54.083Z,15.85
2023-09-28T03:35:21.578Z,17.63
2023-09-28T03:37:48.897Z,19.40
2023-09-28T03:40:16.217Z,14.75
2023-09-28T03:42:47.898Z,16.05
2023-09-28T03:45:21.284Z,15.82
2023-09-28T03:47:53.867Z,13.25
2023-09-28T03:50:21.686Z,13.70
2023-09-28T03:52:48.686Z,14.77
2023-09-28T03:55:19.851Z,14.27
2023-09-28T03:57:46.771Z,14.05
2023-09-28T04:00:14.292Z,14.88
2023-09-28T04:02:48.532Z,17.85
2023-09-28T04:05:17.658Z,11.52
2023-09-28T04:07:44.547Z,15.93
2023-09-28T04:10:12.975Z,12.73
2023-09-28T04:12:40.289Z,15.95
2023-09-28T04:15:08.908Z,15.77
2023-09-28T04:17:35.962Z,11.85
2023-09-28T04:20:06.062Z,12.82
2023-09-28T04:22:33.483Z,14.75
2023-09-28T04:25:00.103Z,13.48
2023-09-28T04:27:29.833Z,12.05
2023-09-28T04:29:56.478Z,20.58
2023-09-28T04:32:23.493Z,14.00
2023-09-28T04:34:53.287Z,13.32
2023-09-28T04:37:20.473Z,13.02
2023-09-28T04:39:47.269Z,14.27
2023-09-28T04:42:16.271Z,13.35
2023-09-28T04:44:45.235Z,17.80
2023-09-28T04:47:12.930Z,13.82
2023-09-28T04:49:42.564Z,16.27
2023-09-28T04:52:19.242Z,15.27
2023-09-28T04:54:46.010Z,20.60
2023-09-28T04:57:12.676Z,31.92
2023-09-28T04:59:40.493Z,36.10
2023-09-28T05:02:08.142Z,32.83
2023-09-28T05:04:36.306Z,23.15
2023-09-28T05:07:03.916Z,18.40
2023-09-28T05:09:30.626Z,21.10
2023-09-28T05:12:01.856Z,14.95
2023-09-28T05:14:28.786Z,16.92
2023-09-28T05:16:55.806Z,15.70
2023-09-28T05:19:26.545Z,17.27
2023-09-28T05:21:53.173Z,17.98
2023-09-28T05:24:19.967Z,17.48
2023-09-28T05:26:47.006Z,17.20
2023-09-28T05:29:13.632Z,16.67
2023-09-28T05:31:40.368Z,15.88
2023-09-28T05:34:07.763Z,16.70
2023-09-28T05:36:34.694Z,15.48
2023-09-28T05:39:01.395Z,14.32
2023-09-28T05:41:37.554Z,14.40
2023-09-28T05:44:13.626Z,17.85
2023-09-28T05:46:41.187Z,19.40
2023-09-28T05:49:11.665Z,22.70
2023-09-28T05:51:42.073Z,19.92
2023-09-28T05:54:08.746Z,19.15
2023-09-28T05:56:35.436Z,20.75
2023-09-28T05:59:02.134Z,18.45
2023-09-28T06:01:30.498Z,16.90
2023-09-28T06:03:57.391Z,17.90
2023-09-28T06:06:25.314Z,14.98
2023-09-28T06:08:52.234Z,21.08
2023-09-28T06:11:19.202Z,21.67
2023-09-28T06:14:01.058Z,12.07
2023-09-28T06:16:38.016Z,14.85
2023-09-28T06:19:05.153Z,14.15
2023-09-28T06:21:31.814Z,14.90
2023-09-28T06:23:58.596Z,10.40
2023-09-28T06:26:39.029Z,10.40
2023-09-28T06:29:12.020Z,12.02
2023-09-28T06:31:38.846Z,10.52
2023-09-28T06:34:07.287Z,12.80
2023-09-28T06:39:04.950Z,12.15
2023-09-28T06:41:31.893Z,13.50
2023-09-28T06:43:59.633Z,16.67
2023-09-28T06:46:27.744Z,12.57
2023-09-28T06:48:54.622Z,10.88
2023-09-28T06:51:27.435Z,12.88
2023-09-28T06:54:02.996Z,16.80
2023-09-28T06:56:29.837Z,17.55
2023-09-28T06:58:58.964Z,14.30
2023-09-28T07:01:27.623Z,17.77
2023-09-28T07:03:55.601Z,17.45
2023-09-28T07:06:24.812Z,17.58
2023-09-28T07:08:53.902Z,14.90
2023-09-28T07:11:20.918Z,16.10
2023-09-28T07:13:51.749Z,16.23
2023-09-28T07:16:20.544Z,10.77
2023-09-28T07:18:48.360Z,14.48
2023-09-28T07:21:15.619Z,14.13
2023-09-28T07:23:43.247Z,10.38
2023-09-28T07:26:17.641Z,16.70
2023-09-28T07:28:45.245Z,15.32
2023-09-28T07:31:12.882Z,14.10
2023-09-28T07:33:40.667Z,19.83
2023-09-28T07:36:08.653Z,15.32
2023-09-28T07:38:35.441Z,19.83
2023-09-28T07:41:03.062Z,34.63
2023-09-28T07:43:33.716Z,31.80
2023-09-28T07:46:00.355Z,19.73
2023-09-28T07:48:30.314Z,27.25
2023-09-28T07:50:58.657Z,31.02
2023-09-28T07:53:28.128Z,13.68
2023-09-28T07:55:55.003Z,20.02
2023-09-28T07:58:29.771Z,17.58
2023-09-28T08:00:58.732Z,18.30
2023-09-28T08:03:30.465Z,23.08
2023-09-28T08:05:57.405Z,20.83
2023-09-28T08:08:25.105Z,12.73
2023-09-28T08:10:52.213Z,40.38
2023-09-28T08:13:21.761Z,15.63
2023-09-28T08:15:49.657Z,14.55
2023-09-28T08:18:16.518Z,17.85
2023-09-28T08:20:55.114Z,24.00
2023-09-28T08:23:33.357Z,15.70
2023-09-28T08:26:00.215Z,16.83
2023-09-28T08:28:27.510Z,15.05
2023-09-28T08:31:01.129Z,13.27
2023-09-28T08:33:27.805Z,43.45
2023-09-28T08:35:54.477Z,14.00
2023-09-28T08:38:21.490Z,16.35
2023-09-28T08:40:49.796Z,18.30
2023-09-28T08:43:18.811Z,19.63
2023-09-28T08:45:45.505Z,9.88
2023-09-28T08:48:12.822Z,11.93
2023-09-28T08:50:40.092Z,11.18
2023-09-28T08:53:06.842Z,9.88
2023-09-28T08:55:39.023Z,10.45
2023-09-28T08:58:05.863Z,11.70
2023-09-28T09:00:32.763Z,8.80
2023-09-28T09:03:00.290Z,11.52
2023-09-28T09:05:31.011Z,12.02
2023-09-28T09:07:58.135Z,10.15
2023-09-28T09:10:24.870Z,9.50
2023-09-28T09:12:53.442Z,7.82
2023-09-28T09:15:21.107Z,8.52
2023-09-28T09:17:47.833Z,8.05
2023-09-28T09:20:14.555Z,7.50
2023-09-28T09:22:57.984Z,7.32
2023-09-28T09:25:42.860Z,7.20
2023-09-28T09:28:13.956Z,14.52
2023-09-28T09:30:43.545Z,17.65
2023-09-28T09:33:10.229Z,70.97
2023-09-28T09:35:40.341Z,9.38
2023-09-28T09:38:09.597Z,8.38
2023-09-28T09:40:38.355Z,7.07
2023-09-28T09:43:11.220Z,13.57
2023-09-28T09:45:39.759Z,11.40
2023-09-28T09:48:09.209Z,7.93
2023-09-28T09:50:40.353Z,11.27
2023-09-28T09:53:18.221Z,5.55
2023-09-28T09:55:48.693Z,6.90
2023-09-28T09:58:25.655Z,7.88
2023-09-28T10:00:58.786Z,7.60
2023-09-28T10:03:35.230Z,6.22
2023-09-28T10:06:02.547Z,5.55
2023-09-28T10:08:31.844Z,9.02
2023-09-28T10:11:02.013Z,7.00
2023-09-28T10:13:34.690Z,9.07
2023-09-28T10:16:04.845Z,6.05
2023-09-28T10:18:32.563Z,6.20
2023-09-28T10:21:00.969Z,9.82
2023-09-28T10:23:28.303Z,6.32
2023-09-28T10:26:00.913Z,6.03
2023-09-28T10:28:28.027Z,8.57
2023-09-28T10:31:15.524Z,5.25
2023-09-28T10:34:17.225Z,5.55
2023-09-28T10:36:44.032Z,5.35
2023-09-28T10:39:17.493Z,4.70
2023-09-28T10:41:57.193Z,5.45
2023-09-28T10:44:23.924Z,8.30
2023-09-28T10:46:51.908Z,10.48
2023-09-28T10:49:25.925Z,7.60
2023-09-28T10:51:53.822Z,8.15
2023-09-28T10:54:20.790Z,6.53
2023-09-28T10:56:52.041Z,5.00
2023-09-28T10:59:19.249Z,9.60
2023-09-28T11:01:48.870Z,7.40
2023-09-28T11:04:17.319Z,5.45
2023-09-28T11:06:44.874Z,4.88
2023-09-28T11:09:13.704Z,14.93
2023-09-28T11:11:41.399Z,4.30
2023-09-28T11:14:12.013Z,4.55
2023-09-28T11:16:40.087Z,23.25
2023-09-28T11:19:06.819Z,9.10
2023-09-28T11:21:33.522Z,11.88
2023-09-28T11:24:01.011Z,5.18
2023-09-28T11:26:29.951Z,4.60
2023-09-28T11:28:58.861Z,7.50
2023-09-28T11:31:26.291Z,8.40
2023-09-28T11:33:53.419Z,7.82
2023-09-28T11:39:15.183Z,3.65
2023-09-28T11:42:05.072Z,4.88
2023-09-28T11:44:31.923Z,8.52
2023-09-28T11:46:59.517Z,3.47
2023-09-28T11:49:26.708Z,3.10
2023-09-28T11:51:56.327Z,6.43
2023-09-28T11:54:23.061Z,6.20
2023-09-28T11:56:55.104Z,4.43
2023-09-28T11:59:33.782Z,3.53
2023-09-28T12:02:00.708Z,5.45
2023-09-28T12:04:27.557Z,4.22
2023-09-28T12:06:54.811Z,8.57
2023-09-28T12:12:15.366Z,3.53
2023-09-28T12:14:46.733Z,4.18
2023-09-28T12:17:15.416Z,6.28
2023-09-28T12:19:42.137Z,2.92
2023-09-28T12:22:08.808Z,6.40
2023-09-28T12:24:36.994Z,5.13
2023-09-28T12:27:06.463Z,4.00
2023-09-28T12:29:33.219Z,5.80
2023-09-28T12:32:01.329Z,3.95
2023-09-28T12:34:28.243Z,3.33
2023-09-28T12:36:58.900Z,3.67
2023-09-28T12:39:26.052Z,4.75
2023-09-28T12:41:55.147Z,3.15
2023-09-28T12:44:36.514Z,5.88
2023-09-28T12:47:03.244Z,3.83
2023-09-28T12:49:30.338Z,3.75
2023-09-28T12:52:12.413Z,3.28
2023-09-28T12:54:42.129Z,3.13
2023-09-28T12:57:09.493Z,6.28
2023-09-28T12:59:36.184Z,8.82
2023-09-28T13:02:06.867Z,3.08
2023-09-28T13:04:34.512Z,4.00
2023-09-28T13:07:04.733Z,4.38
2023-09-28T13:10:12.475Z,5.63
2023-09-28T13:12:39.479Z,2.92
2023-09-28T13:15:18.579Z,3.50
2023-09-28T13:17:47.998Z,5.63
2023-09-28T13:20:26.114Z,4.07
2023-09-28T13:22:55.513Z,3.10
2023-09-28T13:25:27.967Z,4.53
2023-09-28T13:27:56.463Z,2.78
2023-09-28T13:30:46.795Z,4.82
2023-09-28T13:33:15.237Z,3.25
2023-09-28T13:35:44.775Z,6.00
2023-09-28T13:38:11.635Z,3.28
2023-09-28T13:40:38.862Z,3.33
2023-09-28T13:43:08.861Z,3.22
2023-09-28T13:45:37.484Z,5.40
2023-09-28T13:48:04.904Z,6.03
2023-09-28T13:50:40.968Z,3.67
2023-09-28T13:53:12.415Z,4.40
2023-09-28T13:55:39.389Z,3.10
2023-09-28T13:58:06.061Z,5.80
2023-09-28T14:00:41.183Z,6.13
2023-09-28T14:03:08.790Z,6.97
2023-09-28T14:05:38.042Z,7.20
2023-09-28T14:08:08.848Z,5.72
2023-09-28T14:10:35.761Z,3.00
2023-09-28T14:13:02.712Z,6.90
2023-09-28T14:15:30.895Z,5.45
2023-09-28T14:17:58.032Z,5.25
2023-09-28T14:20:29.981Z,4.05
2023-09-28T14:22:56.768Z,5.00
2023-09-28T14:25:24.370Z,3.78
2023-09-28T14:27:52.199Z,5.05
2023-09-28T14:30:26.065Z,5.35
2023-09-28T14:32:52.934Z,2.72
2023-09-28T14:35:44.563Z,3.42
2023-09-28T14:38:16.751Z,4.35
2023-09-28T14:40:47.910Z,3.65
2023-09-28T14:43:14.644Z,10.10
2023-09-28T14:45:41.337Z,3.22
2023-09-28T14:48:08.093Z,2.85
2023-09-28T14:50:34.941Z,4.25
2023-09-28T14:53:01.924Z,4.35
2023-09-28T14:55:28.584Z,3.15
2023-09-28T14:57:56.092Z,4.80
2023-09-28T15:00:22.934Z,4.72
2023-09-28T15:02:50.201Z,4.10
2023-09-28T15:05:17.141Z,6.18
2023-09-28T15:07:44.197Z,5.35
2023-09-28T15:10:11.391Z,4.72
2023-09-28T15:12:38.848Z,2.90
2023-09-28T15:15:06.790Z,5.05
2023-09-28T15:17:33.569Z,3.50
2023-09-28T15:20:02.994Z,5.47
2023-09-28T15:22:29.704Z,6.03
2023-09-28T15:24:56.676Z,3.47
2023-09-28T15:27:23.692Z,4.28
2023-09-28T15:29:53.158Z,4.90
2023-09-28T15:32:20.482Z,4.68
2023-09-28T15:34:49.820Z,3.83
2023-09-28T15:37:19.683Z,5.05
2023-09-28T15:39:47.663Z,7.18
2023-09-28T15:42:15.261Z,7.10
2023-09-28T15:44:42.506Z,2.75
2023-09-28T15:47:10.998Z,3.95
2023-09-28T15:49:38.975Z,5.68
2023-09-28T15:52:17.738Z,4.10
2023-09-28T15:54:44.495Z,6.38
2023-09-28T15:57:11.198Z,4.72
2023-09-28T15:59:38.677Z,5.30
2023-09-28T16:02:05.539Z,3.67
2023-09-28T16:04:32.277Z,3.35
2023-09-28T16:06:59.016Z,7.25
2023-09-28T16:09:25.706Z,5.07
2023-09-28T16:11:52.415Z,4.88
2023-09-28T16:14:36.153Z,7.10
2023-09-28T16:17:02.904Z,5.32
2023-09-28T16:19:29.768Z,5.18
2023-09-28T16:21:57.741Z,7.90
2023-09-28T16:24:24.368Z,9.85
2023-09-28T16:26:51.240Z,5.45
2023-09-28T16:29:17.904Z,3.75
2023-09-28T16:31:44.624Z,7.10
2023-09-28T16:34:11.666Z,4.88
2023-09-28T16:36:38.483Z,6.82
2023-09-28T16:39:05.218Z,5.03
2023-09-28T16:41:32.739Z,3.80
2023-09-28T16:43:59.501Z,4.32
2023-09-28T16:46:26.441Z,5.18
2023-09-28T16:48:53.579Z,7.55
2023-09-28T16:51:20.511Z,10.13
2023-09-28T16:53:48.012Z,6.32
2023-09-28T16:56:15.051Z,6.53
2023-09-28T16:58:43.002Z,6.50
2023-09-28T17:01:10.828Z,7.30
2023-09-28T17:03:38.852Z,8.63
2023-09-28T17:06:06.004Z,6.43
2023-09-28T17:08:34.419Z,4.63
2023-09-28T17:11:05.757Z,7.53
2023-09-28T17:13:32.646Z,8.10
2023-09-28T17:15:59.502Z,4.97
2023-09-28T17:18:28.034Z,8.18
2023-09-28T17:20:55.798Z,9.90
2023-09-28T17:23:22.930Z,7.93
2023-09-28T17:25:52.283Z,7.43
2023-09-28T17:28:18.987Z,7.25
2023-09-28T17:30:47.435Z,6.43
2023-09-28T17:33:15.785Z,8.18
2023-09-28T17:35:43.966Z,11.75
2023-09-28T17:38:11.064Z,9.57
2023-09-28T17:40:40.104Z,9.15
2023-09-28T17:43:10.389Z,11.00
2023-09-28T17:45:38.016Z,15.82
2023-09-28T17:48:05.753Z,7.13
2023-09-28T17:50:32.734Z,10.15
2023-09-28T17:52:59.421Z,8.18
2023-09-28T17:55:26.675Z,10.90
2023-09-28T17:57:54.163Z,10.65
2023-09-28T18:00:22.318Z,10.55
2023-09-28T18:02:49.133Z,4.85
2023-09-28T18:05:16.087Z,6.47
2023-09-28T18:07:42.844Z,5.30
2023-09-28T18:10:11.333Z,6.68
2023-09-28T18:12:39.526Z,9.75
2023-09-28T18:15:09.480Z,8.75
2023-09-28T18:17:36.583Z,11.60
2023-09-28T18:20:05.255Z,7.95
2023-09-28T18:22:33.686Z,10.98
2023-09-28T18:25:04.495Z,10.30
2023-09-28T18:27:32.580Z,7.78
2023-09-28T18:29:59.263Z,9.38
2023-09-28T18:32:27.386Z,8.98
2023-09-28T18:34:55.747Z,7.20
2023-09-28T18:37:26.965Z,8.65
2023-09-28T18:39:53.718Z,9.15
2023-09-28T18:42:20.547Z,10.73
2023-09-28T18:44:47.181Z,5.65
2023-09-28T18:47:14.125Z,8.95
2023-09-28T18:49:40.776Z,9.70
2023-09-28T18:52:08.213Z,8.48
2023-09-28T18:54:34.847Z,7.53
2023-09-28T18:57:05.557Z,8.70
2023-09-28T18:59:32.429Z,7.72
2023-09-28T19:01:59.237Z,7.78
2023-09-28T19:04:27.153Z,9.45
2023-09-28T19:06:53.893Z,6.90
2023-09-28T19:09:23.611Z,8.88
2023-09-28T19:11:50.735Z,10.80
2023-09-28T19:14:17.651Z,10.05
2023-09-28T19:16:49.371Z,12.65
2023-09-28T19:19:16.421Z,9.93
2023-09-28T19:21:43.048Z,11.60
2023-09-28T19:24:09.808Z,5.53
2023-09-28T19:26:36.494Z,6.60
2023-09-28T19:29:03.292Z,11.27
2023-09-28T19:31:33.834Z,9.48
2023-09-28T19:34:00.618Z,14.48
2023-09-28T19:36:27.864Z,8.38
2023-09-28T19:38:54.774Z,9.70
2023-09-28T19:41:30.707Z,6.97
2023-09-28T19:43:58.158Z,9.95
2023-09-28T19:46:25.280Z,12.27
2023-09-28T19:48:53.042Z,9.05
2023-09-28T19:51:20.487Z,8.45
2023-09-28T19:53:50.817Z,9.88
2023-09-28T19:56:29.368Z,10.57
2023-09-28T19:58:57.641Z,14.50
2023-09-28T20:01:26.171Z,13.43
2023-09-28T20:03:53.266Z,7.75
2023-09-28T20:06:19.947Z,9.93
2023-09-28T20:08:46.710Z,9.82
2023-09-28T20:11:13.628Z,11.35
2023-09-28T20:13:41.264Z,6.63
2023-09-28T20:16:08.057Z,8.50
2023-09-28T20:18:34.746Z,10.68
2023-09-28T20:21:02.667Z,10.65
2023-09-28T20:23:29.454Z,7.68
2023-09-28T20:25:57.337Z,10.35
2023-09-28T20:28:25.866Z,9.65
2023-09-28T20:30:52.597Z,7.05
2023-09-28T20:33:19.511Z,11.68
2023-09-28T20:35:47.106Z,7.38
2023-09-28T20:38:14.068Z,9.68
2023-09-28T20:40:41.178Z,8.00
2023-09-28T20:43:07.806Z,8.00
2023-09-28T20:45:40.931Z,8.13
2023-09-28T20:48:08.216Z,7.22
2023-09-28T20:50:35.262Z,7.88
2023-09-28T20:53:02.433Z,6.07
2023-09-28T20:55:30.382Z,6.53
2023-09-28T20:57:57.191Z,6.70
2023-09-28T21:00:24.093Z,14.55
2023-09-28T21:02:50.920Z,9.52
2023-09-28T21:05:17.666Z,5.97
2023-09-28T21:07:47.020Z,9.38
2023-09-28T21:10:15.261Z,11.50
2023-09-28T21:12:46.203Z,9.30
2023-09-28T21:15:15.840Z,8.48
2023-09-28T21:17:45.985Z,7.75
2023-09-28T21:20:15.311Z,8.85
2023-09-28T21:22:45.023Z,6.85
2023-09-28T21:25:15.819Z,11.00
2023-09-28T21:27:47.735Z,6.63
2023-09-28T21:30:14.595Z,7.10
2023-09-28T21:32:42.706Z,11.85
2023-09-28T21:35:13.468Z,6.22
2023-09-28T21:37:45.293Z,10.30
2023-09-28T21:40:13.677Z,12.23
2023-09-28T21:42:41.012Z,8.88
2023-09-28T21:45:13.033Z,7.18
2023-09-28T21:47:40.082Z,10.27
2023-09-28T21:50:08.348Z,11.55
2023-09-28T21:52:35.127Z,9.77
2023-09-28T21:55:01.789Z,6.90
2023-09-28T21:57:28.393Z,9.80
2023-09-28T21:59:56.604Z,11.20
2023-09-28T22:02:24.500Z,7.45
2023-09-28T22:04:54.487Z,9.07
2023-09-28T22:07:21.934Z,8.55
2023-09-28T22:09:58.283Z,9.73
2023-09-28T22:12:25.671Z,9.50
2023-09-28T22:14:53.049Z,6.90
2023-09-28T22:17:23.451Z,10.95
2023-09-28T22:19:52.928Z,7.88
2023-09-28T22:22:22.783Z,13.85
2023-09-28T22:24:49.405Z,8.35
2023-09-28T22:27:18.651Z,7.03
2023-09-28T22:29:45.356Z,7.43
2023-09-28T22:32:16.570Z,11.73
2023-09-28T22:34:45.337Z,7.20
2023-09-28T22:37:36.123Z,11.30
2023-09-28T22:42:52.748Z,10.15
2023-09-28T22:45:21.829Z,6.68
2023-09-28T22:47:51.224Z,7.65
2023-09-28T22:50:18.862Z,7.20
2023-09-28T22:52:53.992Z,9.85
2023-09-28T22:55:22.490Z,6.32
2023-09-28T22:57:55.510Z,8.25
2023-09-28T23:00:25.801Z,6.18
2023-09-28T23:02:52.939Z,7.00
2023-09-28T23:05:22.722Z,6.50
2023-09-28T23:07:51.040Z,11.30
2023-09-28T23:10:19.232Z,6.90
2023-09-28T23:12:51.367Z,7.75
2023-09-28T23:15:19.568Z,6.78
2023-09-28T23:17:50.611Z,6.50
2023-09-28T23:20:24.461Z,9.90
2023-09-28T23:22:53.573Z,6.38
2023-09-28T23:25:20.918Z,6.63
2023-09-28T23:27:49.523Z,7.78
2023-09-28T23:30:20.683Z,7.72
2023-09-28T23:32:51.865Z,7.40
2023-09-28T23:35:24.416Z,8.13
2023-09-28T23:37:59.395Z,6.43
2023-09-28T23:40:26.601Z,9.63
2023-09-28T23:42:54.187Z,6.82
2023-09-28T23:45:23.566Z,8.07
2023-09-28T23:47:50.632Z,6.40
2023-09-28T23:50:18.296Z,7.28
2023-09-28T23:52:45.432Z,6.93
2023-09-28T23:55:13.672Z,12.93
2023-09-28T23:57:40.841Z,7.63
